sensor_id;sensor_type;location;lat;lon;timestamp;pressure;altitude;pressure_sealevel;temperature;humidity
19005;BME280;9635;52.078;8.648;2024-02-28T00:02:40;100771.75;;;1.67;90.05
19005;BME280;9635;52.078;8.648;2024-02-28T00:07:44;100772.63;;;1.68;89.21
19005;BME280;9635;52.078;8.648;2024-02-28T00:12:48;100763.28;;;1.58;88.58
19005;BME280;9635;52.078;8.648;2024-02-28T00:17:52;100762.59;;;1.53;88.14
19005;BME280;9635;52.078;8.648;2024-02-28T00:22:56;100768.69;;;1.55;88.52
19005;BME280;9635;52.078;8.648;2024-02-28T00:27:59;100774.63;;;1.38;87.48
19005;BME280;9635;52.078;8.648;2024-02-28T00:33:02;100771.97;;;1.38;88.22
19005;BME280;9635;52.078;8.648;2024-02-28T00:38:07;100780.69;;;1.40;88.19
19005;BME280;9635;52.078;8.648;2024-02-28T00:43:10;100774.66;;;1.36;88.52
19005;BME280;9635;52.078;8.648;2024-02-28T00:48:13;100781.00;;;1.32;87.72
19005;BME280;9635;52.078;8.648;2024-02-28T00:53:18;100786.78;;;1.18;86.47
19005;BME280;9635;52.078;8.648;2024-02-28T00:58:21;100792.41;;;1.09;87.07
19005;BME280;9635;52.078;8.648;2024-02-28T01:03:25;100802.38;;;1.01;87.20
19005;BME280;9635;52.078;8.648;2024-02-28T01:08:29;100793.41;;;0.80;87.48
19005;BME280;9635;52.078;8.648;2024-02-28T01:13:32;100790.00;;;0.76;89.01
19005;BME280;9635;52.078;8.648;2024-02-28T01:18:35;100788.63;;;0.91;89.35
19005;BME280;9635;52.078;8.648;2024-02-28T01:23:40;100803.22;;;0.76;88.94
19005;BME280;9635;52.078;8.648;2024-02-28T01:28:42;100783.03;;;0.74;88.90
19005;BME280;9635;52.078;8.648;2024-02-28T01:33:45;100778.31;;;0.83;88.88
19005;BME280;9635;52.078;8.648;2024-02-28T01:38:50;100765.91;;;0.86;88.51
19005;BME280;9635;52.078;8.648;2024-02-28T01:43:56;100775.81;;;0.79;89.84
19005;BME280;9635;52.078;8.648;2024-02-28T01:48:59;100774.22;;;0.73;89.68
19005;BME280;9635;52.078;8.648;2024-02-28T01:54:04;100765.53;;;0.70;90.81
19005;BME280;9635;52.078;8.648;2024-02-28T01:59:09;100788.66;;;0.63;90.23
19005;BME280;9635;52.078;8.648;2024-02-28T02:04:13;100787.09;;;0.57;89.31
19005;BME280;9635;52.078;8.648;2024-02-28T02:09:17;100772.19;;;0.55;88.89
19005;BME280;9635;52.078;8.648;2024-02-28T02:14:20;100763.50;;;0.51;89.59
19005;BME280;9635;52.078;8.648;2024-02-28T02:19:23;100763.59;;;0.50;90.32
19005;BME280;9635;52.078;8.648;2024-02-28T02:24:27;100763.88;;;0.41;90.71
19005;BME280;9635;52.078;8.648;2024-02-28T02:29:31;100767.88;;;0.26;91.24
19005;BME280;9635;52.078;8.648;2024-02-28T02:34:34;100771.28;;;0.29;91.67
19005;BME280;9635;52.078;8.648;2024-02-28T02:39:38;100773.16;;;0.26;92.07
19005;BME280;9635;52.078;8.648;2024-02-28T02:44:42;100765.16;;;0.27;91.71
19005;BME280;9635;52.078;8.648;2024-02-28T02:49:45;100768.09;;;0.20;92.06
19005;BME280;9635;52.078;8.648;2024-02-28T02:54:49;100775.19;;;0.17;92.13
19005;BME280;9635;52.078;8.648;2024-02-28T02:59:52;100791.03;;;0.17;91.59
19005;BME280;9635;52.078;8.648;2024-02-28T03:04:55;100807.13;;;0.10;91.19
19005;BME280;9635;52.078;8.648;2024-02-28T03:09:59;100803.44;;;-0.14;90.55
19005;BME280;9635;52.078;8.648;2024-02-28T03:15:04;100799.84;;;-0.12;90.83
19005;BME280;9635;52.078;8.648;2024-02-28T03:20:08;100788.88;;;0.02;91.30
19005;BME280;9635;52.078;8.648;2024-02-28T03:25:12;100795.63;;;0.11;92.05
19005;BME280;9635;52.078;8.648;2024-02-28T03:30:16;100798.03;;;0.19;91.69
19005;BME280;9635;52.078;8.648;2024-02-28T03:35:19;100797.28;;;0.15;91.48
19005;BME280;9635;52.078;8.648;2024-02-28T03:40:23;100795.72;;;0.08;92.34
19005;BME280;9635;52.078;8.648;2024-02-28T03:45:27;100794.75;;;0.12;92.33
19005;BME280;9635;52.078;8.648;2024-02-28T03:50:31;100794.59;;;0.16;91.97
19005;BME280;9635;52.078;8.648;2024-02-28T03:55:35;100797.25;;;0.16;91.61
19005;BME280;9635;52.078;8.648;2024-02-28T04:00:39;100813.25;;;0.12;91.30
19005;BME280;9635;52.078;8.648;2024-02-28T04:05:46;100817.16;;;-0.01;91.38
19005;BME280;9635;52.078;8.648;2024-02-28T04:10:50;100813.66;;;-0.02;91.13
19005;BME280;9635;52.078;8.648;2024-02-28T04:15:53;100826.13;;;-0.07;90.99
19005;BME280;9635;52.078;8.648;2024-02-28T04:20:57;100827.22;;;-0.14;91.07
19005;BME280;9635;52.078;8.648;2024-02-28T04:26:04;100829.84;;;-0.14;90.95
19005;BME280;9635;52.078;8.648;2024-02-28T04:31:07;100829.13;;;-0.19;92.25
19005;BME280;9635;52.078;8.648;2024-02-28T04:36:11;100835.22;;;-0.17;92.59
19005;BME280;9635;52.078;8.648;2024-02-28T04:41:15;100831.00;;;-0.23;92.54
19005;BME280;9635;52.078;8.648;2024-02-28T04:46:18;100846.09;;;-0.28;93.43
19005;BME280;9635;52.078;8.648;2024-02-28T04:51:22;100837.75;;;-0.44;93.56
19005;BME280;9635;52.078;8.648;2024-02-28T04:56:26;100852.25;;;-0.59;94.86
19005;BME280;9635;52.078;8.648;2024-02-28T05:01:29;100861.13;;;-0.61;95.72
19005;BME280;9635;52.078;8.648;2024-02-28T05:06:33;100862.91;;;-0.63;96.20
19005;BME280;9635;52.078;8.648;2024-02-28T05:11:42;100880.59;;;-0.65;98.36
19005;BME280;9635;52.078;8.648;2024-02-28T05:16:46;100882.22;;;-0.61;99.54
19005;BME280;9635;52.078;8.648;2024-02-28T05:21:49;100892.59;;;-0.54;100.00
19005;BME280;9635;52.078;8.648;2024-02-28T05:26:54;100905.56;;;-0.46;100.00
19005;BME280;9635;52.078;8.648;2024-02-28T05:31:57;100914.81;;;-0.30;100.00
19005;BME280;9635;52.078;8.648;2024-02-28T05:37:00;100917.19;;;-0.20;100.00
19005;BME280;9635;52.078;8.648;2024-02-28T05:42:05;100918.78;;;-0.15;100.00
19005;BME280;9635;52.078;8.648;2024-02-28T05:47:08;100923.28;;;-0.18;100.00
19005;BME280;9635;52.078;8.648;2024-02-28T05:52:11;100931.00;;;-0.11;100.00
19005;BME280;9635;52.078;8.648;2024-02-28T05:57:16;100932.63;;;-0.05;100.00
19005;BME280;9635;52.078;8.648;2024-02-28T06:02:19;100932.34;;;0.04;100.00
19005;BME280;9635;52.078;8.648;2024-02-28T06:07:22;100927.69;;;0.12;99.25
19005;BME280;9635;52.078;8.648;2024-02-28T06:12:27;100942.50;;;0.18;99.16
19005;BME280;9635;52.078;8.648;2024-02-28T06:17:30;100948.66;;;0.19;98.49
19005;BME280;9635;52.078;8.648;2024-02-28T06:22:33;100943.03;;;0.31;97.91
19005;BME280;9635;52.078;8.648;2024-02-28T06:27:37;100953.09;;;0.48;98.18
19005;BME280;9635;52.078;8.648;2024-02-28T06:32:40;100959.97;;;0.53;97.05
19005;BME280;9635;52.078;8.648;2024-02-28T06:37:43;100964.97;;;0.63;96.55
19005;BME280;9635;52.078;8.648;2024-02-28T06:42:52;100958.91;;;0.59;95.95
19005;BME280;9635;52.078;8.648;2024-02-28T06:47:57;100967.59;;;0.64;95.94
19005;BME280;9635;52.078;8.648;2024-02-28T06:53:03;100967.53;;;0.94;97.76
19005;BME280;9635;52.078;8.648;2024-02-28T06:58:08;100971.53;;;1.60;97.61
19005;BME280;9635;52.078;8.648;2024-02-28T07:03:11;100969.34;;;1.97;93.91
19005;BME280;9635;52.078;8.648;2024-02-28T07:08:14;100973.56;;;1.52;93.71
19005;BME280;9635;52.078;8.648;2024-02-28T07:13:18;100984.19;;;1.50;93.67
19005;BME280;9635;52.078;8.648;2024-02-28T07:18:21;100997.25;;;1.30;95.93
19005;BME280;9635;52.078;8.648;2024-02-28T07:23:27;100997.91;;;1.37;95.41
19005;BME280;9635;52.078;8.648;2024-02-28T07:28:32;101002.72;;;1.50;94.43
19005;BME280;9635;52.078;8.648;2024-02-28T07:33:35;101005.59;;;1.44;95.05
19005;BME280;9635;52.078;8.648;2024-02-28T07:38:38;101008.13;;;1.47;94.23
19005;BME280;9635;52.078;8.648;2024-02-28T07:43:45;101017.31;;;1.37;95.17
19005;BME280;9635;52.078;8.648;2024-02-28T07:48:48;101009.53;;;1.59;96.27
19005;BME280;9635;52.078;8.648;2024-02-28T07:53:51;101008.63;;;1.85;95.51
19005;BME280;9635;52.078;8.648;2024-02-28T07:58:56;101004.09;;;2.14;94.53
19005;BME280;9635;52.078;8.648;2024-02-28T08:03:59;101001.13;;;2.22;92.31
19005;BME280;9635;52.078;8.648;2024-02-28T08:09:04;101012.06;;;2.12;92.30
19005;BME280;9635;52.078;8.648;2024-02-28T08:14:10;101011.81;;;2.20;91.61
19005;BME280;9635;52.078;8.648;2024-02-28T08:19:14;101017.16;;;2.18;91.49
19005;BME280;9635;52.078;8.648;2024-02-28T08:24:17;101029.88;;;2.09;90.97
19005;BME280;9635;52.078;8.648;2024-02-28T08:29:21;101029.22;;;2.02;91.93
19005;BME280;9635;52.078;8.648;2024-02-28T08:34:24;101040.03;;;2.21;91.77
19005;BME280;9635;52.078;8.648;2024-02-28T08:39:27;101045.28;;;2.23;91.45
19005;BME280;9635;52.078;8.648;2024-02-28T08:44:32;101044.09;;;2.31;91.74
19005;BME280;9635;52.078;8.648;2024-02-28T08:49:35;101046.97;;;2.49;91.99
19005;BME280;9635;52.078;8.648;2024-02-28T08:54:39;101049.44;;;2.55;91.55
19005;BME280;9635;52.078;8.648;2024-02-28T08:59:43;101053.59;;;2.62;91.42
19005;BME280;9635;52.078;8.648;2024-02-28T09:04:46;101059.78;;;2.63;90.93
19005;BME280;9635;52.078;8.648;2024-02-28T09:09:53;101053.72;;;2.59;91.31
19005;BME280;9635;52.078;8.648;2024-02-28T09:14:58;101041.56;;;2.52;92.55
19005;BME280;9635;52.078;8.648;2024-02-28T09:20:01;101057.09;;;2.39;95.10
19005;BME280;9635;52.078;8.648;2024-02-28T09:25:08;101060.19;;;2.50;95.40
19005;BME280;9635;52.078;8.648;2024-02-28T09:30:13;101062.03;;;2.73;96.16
19005;BME280;9635;52.078;8.648;2024-02-28T09:35:16;101069.88;;;2.51;97.49
19005;BME280;9635;52.078;8.648;2024-02-28T09:40:20;101067.50;;;2.44;96.86
19005;BME280;9635;52.078;8.648;2024-02-28T09:45:24;101067.78;;;2.84;96.02
19005;BME280;9635;52.078;8.648;2024-02-28T09:50:28;101056.03;;;2.92;96.41
19005;BME280;9635;52.078;8.648;2024-02-28T09:55:31;101070.59;;;3.49;94.71
19005;BME280;9635;52.078;8.648;2024-02-28T10:00:36;101076.16;;;3.43;91.20
19005;BME280;9635;52.078;8.648;2024-02-28T10:05:40;101084.34;;;3.59;91.50
19005;BME280;9635;52.078;8.648;2024-02-28T10:10:46;101087.84;;;3.15;93.33
19005;BME280;9635;52.078;8.648;2024-02-28T10:15:53;101072.59;;;3.20;94.30
19005;BME280;9635;52.078;8.648;2024-02-28T10:20:57;101079.56;;;3.01;95.15
19005;BME280;9635;52.078;8.648;2024-02-28T10:26:02;101074.25;;;3.01;94.27
19005;BME280;9635;52.078;8.648;2024-02-28T10:31:07;101074.22;;;3.24;94.97
19005;BME280;9635;52.078;8.648;2024-02-28T10:36:12;101077.34;;;3.12;94.82
19005;BME280;9635;52.078;8.648;2024-02-28T10:41:18;101088.00;;;2.89;95.80
19005;BME280;9635;52.078;8.648;2024-02-28T10:46:23;101103.38;;;2.79;98.11
19005;BME280;9635;52.078;8.648;2024-02-28T10:51:39;101098.22;;;2.99;96.12
19005;BME280;9635;52.078;8.648;2024-02-28T10:56:43;101081.78;;;3.12;94.43
19005;BME280;9635;52.078;8.648;2024-02-28T11:01:47;101097.78;;;3.10;94.96
19005;BME280;9635;52.078;8.648;2024-02-28T11:06:53;101090.03;;;3.49;93.52
19005;BME280;9635;52.078;8.648;2024-02-28T11:11:57;101100.91;;;2.74;98.95
19005;BME280;9635;52.078;8.648;2024-02-28T11:17:03;101095.53;;;3.45;94.15
19005;BME280;9635;52.078;8.648;2024-02-28T11:22:06;101093.06;;;3.18;92.35
19005;BME280;9635;52.078;8.648;2024-02-28T11:27:12;101097.16;;;3.49;91.88
19005;BME280;9635;52.078;8.648;2024-02-28T11:32:18;101089.09;;;3.72;90.36
19005;BME280;9635;52.078;8.648;2024-02-28T11:37:22;101087.84;;;3.59;91.53
19005;BME280;9635;52.078;8.648;2024-02-28T11:42:24;101095.59;;;3.65;91.53
19005;BME280;9635;52.078;8.648;2024-02-28T11:47:29;101093.53;;;3.72;91.96
19005;BME280;9635;52.078;8.648;2024-02-28T11:52:33;101076.88;;;3.68;91.69
19005;BME280;9635;52.078;8.648;2024-02-28T11:57:36;101082.47;;;3.83;90.47
19005;BME280;9635;52.078;8.648;2024-02-28T12:02:42;101075.00;;;3.92;90.53
19005;BME280;9635;52.078;8.648;2024-02-28T12:07:45;101071.06;;;4.01;90.39
19005;BME280;9635;52.078;8.648;2024-02-28T12:12:48;101074.41;;;4.06;89.76
19005;BME280;9635;52.078;8.648;2024-02-28T12:17:53;101069.69;;;4.52;88.18
19005;BME280;9635;52.078;8.648;2024-02-28T12:22:56;101073.03;;;4.16;87.68
19005;BME280;9635;52.078;8.648;2024-02-28T12:27:59;101056.66;;;4.07;90.92
19005;BME280;9635;52.078;8.648;2024-02-28T12:33:04;101058.44;;;4.66;88.03
19005;BME280;9635;52.078;8.648;2024-02-28T12:38:07;101056.66;;;4.67;86.55
19005;BME280;9635;52.078;8.648;2024-02-28T12:43:11;101047.25;;;4.58;86.43
19005;BME280;9635;52.078;8.648;2024-02-28T12:48:17;101043.50;;;4.64;86.01
19005;BME280;9635;52.078;8.648;2024-02-28T12:53:20;101043.88;;;4.54;86.49
19005;BME280;9635;52.078;8.648;2024-02-28T12:58:23;101032.63;;;4.87;84.76
19005;BME280;9635;52.078;8.648;2024-02-28T13:03:27;101033.56;;;4.86;83.66
19005;BME280;9635;52.078;8.648;2024-02-28T13:08:31;101019.97;;;4.92;82.82
19005;BME280;9635;52.078;8.648;2024-02-28T13:13:34;101013.69;;;4.74;83.92
19005;BME280;9635;52.078;8.648;2024-02-28T13:18:39;101014.78;;;4.70;84.29
19005;BME280;9635;52.078;8.648;2024-02-28T13:23:42;101017.22;;;5.13;81.08
19005;BME280;9635;52.078;8.648;2024-02-28T13:28:45;101001.53;;;5.25;79.58
19005;BME280;9635;52.078;8.648;2024-02-28T13:33:55;101004.03;;;5.28;78.46
19005;BME280;9635;52.078;8.648;2024-02-28T13:38:58;101001.78;;;5.38;78.09
19005;BME280;9635;52.078;8.648;2024-02-28T13:44:01;100988.00;;;5.65;78.33
19005;BME280;9635;52.078;8.648;2024-02-28T13:49:06;100979.00;;;5.85;76.06
19005;BME280;9635;52.078;8.648;2024-02-28T13:54:09;100980.50;;;5.90;75.41
19005;BME280;9635;52.078;8.648;2024-02-28T13:59:12;100983.97;;;6.42;73.44
19005;BME280;9635;52.078;8.648;2024-02-28T14:04:16;100975.22;;;6.55;72.31
19005;BME280;9635;52.078;8.648;2024-02-28T14:09:20;100967.94;;;6.91;72.03
19005;BME280;9635;52.078;8.648;2024-02-28T14:14:24;100967.53;;;7.75;69.84
19005;BME280;9635;52.078;8.648;2024-02-28T14:19:28;100953.25;;;8.33;64.88
19005;BME280;9635;52.078;8.648;2024-02-28T14:24:32;100949.34;;;7.95;64.64
19005;BME280;9635;52.078;8.648;2024-02-28T14:29:35;100950.81;;;7.71;65.64
19005;BME280;9635;52.078;8.648;2024-02-28T14:34:40;100956.59;;;7.03;67.58
19005;BME280;9635;52.078;8.648;2024-02-28T14:39:43;100956.47;;;6.73;69.35
19005;BME280;9635;52.078;8.648;2024-02-28T14:44:46;100955.00;;;6.67;70.33
19005;BME280;9635;52.078;8.648;2024-02-28T14:49:50;100952.88;;;6.90;70.37
19005;BME280;9635;52.078;8.648;2024-02-28T14:54:53;100954.41;;;6.94;70.21
19005;BME280;9635;52.078;8.648;2024-02-28T14:59:57;100963.03;;;6.83;70.28
19005;BME280;9635;52.078;8.648;2024-02-28T15:05:01;100957.84;;;6.64;70.54
19005;BME280;9635;52.078;8.648;2024-02-28T15:10:07;100957.25;;;6.59;71.07
19005;BME280;9635;52.078;8.648;2024-02-28T15:15:15;100960.31;;;6.51;71.52
19005;BME280;9635;52.078;8.648;2024-02-28T15:20:20;100955.69;;;6.39;72.13
19005;BME280;9635;52.078;8.648;2024-02-28T15:25:24;100953.88;;;6.39;72.55
19005;BME280;9635;52.078;8.648;2024-02-28T15:30:27;100956.56;;;6.22;72.88
19005;BME280;9635;52.078;8.648;2024-02-28T15:35:32;100948.38;;;5.92;74.03
19005;BME280;9635;52.078;8.648;2024-02-28T15:40:40;100945.25;;;5.84;74.91
19005;BME280;9635;52.078;8.648;2024-02-28T15:45:44;100943.78;;;5.78;75.15
19005;BME280;9635;52.078;8.648;2024-02-28T15:50:48;100944.81;;;5.76;75.29
19005;BME280;9635;52.078;8.648;2024-02-28T15:55:53;100929.81;;;5.73;75.57
19005;BME280;9635;52.078;8.648;2024-02-28T16:00:56;100933.44;;;5.72;75.80
19005;BME280;9635;52.078;8.648;2024-02-28T16:06:01;100934.47;;;5.69;76.53
19005;BME280;9635;52.078;8.648;2024-02-28T16:11:07;100930.25;;;5.65;76.38
19005;BME280;9635;52.078;8.648;2024-02-28T16:16:10;100923.44;;;5.60;77.54
19005;BME280;9635;52.078;8.648;2024-02-28T16:21:15;100931.50;;;5.58;78.07
19005;BME280;9635;52.078;8.648;2024-02-28T16:26:18;100930.97;;;5.52;78.56
19005;BME280;9635;52.078;8.648;2024-02-28T16:31:20;100925.69;;;5.50;78.45
19005;BME280;9635;52.078;8.648;2024-02-28T16:36:25;100915.88;;;5.50;78.56
19005;BME280;9635;52.078;8.648;2024-02-28T16:41:29;100916.28;;;5.43;78.67
19005;BME280;9635;52.078;8.648;2024-02-28T16:46:32;100925.75;;;5.31;79.44
19005;BME280;9635;52.078;8.648;2024-02-28T16:51:36;100926.16;;;5.23;79.71
19005;BME280;9635;52.078;8.648;2024-02-28T16:56:43;100922.31;;;5.12;80.06
19005;BME280;9635;52.078;8.648;2024-02-28T17:01:46;100910.31;;;5.03;80.79
19005;BME280;9635;52.078;8.648;2024-02-28T17:06:52;100913.31;;;4.95;81.36
19005;BME280;9635;52.078;8.648;2024-02-28T17:11:55;100910.31;;;4.84;82.13
19005;BME280;9635;52.078;8.648;2024-02-28T17:16:58;100905.06;;;4.82;82.70
19005;BME280;9635;52.078;8.648;2024-02-28T17:22:02;100914.03;;;4.80;82.94
19005;BME280;9635;52.078;8.648;2024-02-28T17:27:07;100902.69;;;4.76;83.26
19005;BME280;9635;52.078;8.648;2024-02-28T17:32:10;100895.56;;;4.77;83.17
19005;BME280;9635;52.078;8.648;2024-02-28T17:37:15;100904.88;;;4.68;83.56
19005;BME280;9635;52.078;8.648;2024-02-28T17:42:18;100891.22;;;4.57;84.19
19005;BME280;9635;52.078;8.648;2024-02-28T17:47:21;100895.53;;;4.40;85.31
19005;BME280;9635;52.078;8.648;2024-02-28T17:52:26;100892.31;;;4.34;86.47
19005;BME280;9635;52.078;8.648;2024-02-28T17:57:30;100896.91;;;4.30;86.89
19005;BME280;9635;52.078;8.648;2024-02-28T18:02:37;100882.75;;;4.30;87.33
19005;BME280;9635;52.078;8.648;2024-02-28T18:07:41;100887.16;;;4.31;87.64
19005;BME280;9635;52.078;8.648;2024-02-28T18:12:44;100888.31;;;4.25;88.23
19005;BME280;9635;52.078;8.648;2024-02-28T18:17:47;100897.00;;;4.29;88.34
19005;BME280;9635;52.078;8.648;2024-02-28T18:22:51;100890.81;;;4.28;88.66
19005;BME280;9635;52.078;8.648;2024-02-28T18:27:54;100884.59;;;4.28;88.81
19005;BME280;9635;52.078;8.648;2024-02-28T18:33:01;100882.69;;;4.31;88.78
19005;BME280;9635;52.078;8.648;2024-02-28T18:38:06;100873.97;;;4.28;89.41
19005;BME280;9635;52.078;8.648;2024-02-28T18:43:09;100871.59;;;4.22;89.99
19005;BME280;9635;52.078;8.648;2024-02-28T18:48:14;100862.72;;;4.23;89.52
19005;BME280;9635;52.078;8.648;2024-02-28T18:53:18;100860.97;;;4.22;89.97
19005;BME280;9635;52.078;8.648;2024-02-28T18:58:22;100861.19;;;4.17;89.95
19005;BME280;9635;52.078;8.648;2024-02-28T19:03:26;100858.81;;;4.11;90.35
19005;BME280;9635;52.078;8.648;2024-02-28T19:08:30;100850.91;;;4.09;90.25
19005;BME280;9635;52.078;8.648;2024-02-28T19:13:35;100841.56;;;4.01;90.78
19005;BME280;9635;52.078;8.648;2024-02-28T19:18:38;100842.94;;;3.90;91.41
19005;BME280;9635;52.078;8.648;2024-02-28T19:23:43;100845.88;;;3.84;92.27
19005;BME280;9635;52.078;8.648;2024-02-28T19:28:46;100833.59;;;3.82;92.55
19005;BME280;9635;52.078;8.648;2024-02-28T19:33:49;100837.38;;;3.76;92.63
19005;BME280;9635;52.078;8.648;2024-02-28T19:38:54;100838.38;;;3.73;92.65
19005;BME280;9635;52.078;8.648;2024-02-28T19:43:57;100832.41;;;3.68;93.02
19005;BME280;9635;52.078;8.648;2024-02-28T19:49:01;100834.34;;;3.65;93.08
19005;BME280;9635;52.078;8.648;2024-02-28T19:54:06;100831.47;;;3.69;92.98
19005;BME280;9635;52.078;8.648;2024-02-28T19:59:09;100820.97;;;3.66;92.77
19005;BME280;9635;52.078;8.648;2024-02-28T20:04:12;100830.81;;;3.64;92.79
19005;BME280;9635;52.078;8.648;2024-02-28T20:09:17;100830.16;;;3.59;92.60
19005;BME280;9635;52.078;8.648;2024-02-28T20:14:20;100828.91;;;3.47;93.23
19005;BME280;9635;52.078;8.648;2024-02-28T20:19:23;100827.19;;;3.46;93.59
19005;BME280;9635;52.078;8.648;2024-02-28T20:24:28;100831.50;;;3.49;93.96
19005;BME280;9635;52.078;8.648;2024-02-28T20:29:31;100828.72;;;3.52;94.50
19005;BME280;9635;52.078;8.648;2024-02-28T20:34:34;100823.13;;;3.58;94.92
19005;BME280;9635;52.078;8.648;2024-02-28T20:39:41;100810.06;;;3.72;94.41
19005;BME280;9635;52.078;8.648;2024-02-28T20:44:44;100821.34;;;3.78;94.21
19005;BME280;9635;52.078;8.648;2024-02-28T20:49:47;100822.88;;;3.83;93.87
19005;BME280;9635;52.078;8.648;2024-02-28T20:54:51;100827.47;;;3.80;93.33
19005;BME280;9635;52.078;8.648;2024-02-28T20:59:56;100816.13;;;3.76;93.13
19005;BME280;9635;52.078;8.648;2024-02-28T21:04:59;100806.31;;;3.58;93.81
19005;BME280;9635;52.078;8.648;2024-02-28T21:10:04;100802.28;;;3.49;94.46
19005;BME280;9635;52.078;8.648;2024-02-28T21:15:10;100794.59;;;3.43;94.72
19005;BME280;9635;52.078;8.648;2024-02-28T21:20:13;100797.97;;;3.46;95.05
19005;BME280;9635;52.078;8.648;2024-02-28T21:25:19;100789.59;;;3.56;94.49
19005;BME280;9635;52.078;8.648;2024-02-28T21:30:22;100790.72;;;3.50;94.17
19005;BME280;9635;52.078;8.648;2024-02-28T21:35:25;100778.31;;;3.50;94.15
19005;BME280;9635;52.078;8.648;2024-02-28T21:40:30;100784.06;;;3.60;93.38
19005;BME280;9635;52.078;8.648;2024-02-28T21:45:33;100787.38;;;3.65;92.64
19005;BME280;9635;52.078;8.648;2024-02-28T21:50:36;100791.06;;;3.82;91.69
19005;BME280;9635;52.078;8.648;2024-02-28T21:55:42;100784.34;;;3.92;90.50
19005;BME280;9635;52.078;8.648;2024-02-28T22:00:45;100779.94;;;3.92;89.96
19005;BME280;9635;52.078;8.648;2024-02-28T22:05:48;100771.97;;;3.92;89.72
19005;BME280;9635;52.078;8.648;2024-02-28T22:10:53;100763.91;;;3.94;89.50
19005;BME280;9635;52.078;8.648;2024-02-28T22:15:56;100756.72;;;3.96;88.93
19005;BME280;9635;52.078;8.648;2024-02-28T22:20:59;100754.91;;;3.97;88.74
19005;BME280;9635;52.078;8.648;2024-02-28T22:26:03;100745.94;;;3.99;88.34
19005;BME280;9635;52.078;8.648;2024-02-28T22:31:07;100736.09;;;4.01;87.86
19005;BME280;9635;52.078;8.648;2024-02-28T22:36:11;100735.34;;;3.98;87.19
19005;BME280;9635;52.078;8.648;2024-02-28T22:41:20;100730.28;;;3.93;87.05
19005;BME280;9635;52.078;8.648;2024-02-28T22:46:24;100730.19;;;3.94;86.87
19005;BME280;9635;52.078;8.648;2024-02-28T22:51:27;100724.16;;;3.91;86.57
19005;BME280;9635;52.078;8.648;2024-02-28T22:56:31;100723.16;;;3.93;85.93
19005;BME280;9635;52.078;8.648;2024-02-28T23:01:34;100717.91;;;3.92;85.53
19005;BME280;9635;52.078;8.648;2024-02-28T23:06:37;100710.72;;;3.94;84.84
19005;BME280;9635;52.078;8.648;2024-02-28T23:11:43;100708.06;;;3.94;84.34
19005;BME280;9635;52.078;8.648;2024-02-28T23:16:46;100706.38;;;3.93;83.58
19005;BME280;9635;52.078;8.648;2024-02-28T23:21:49;100692.28;;;3.91;82.89
19005;BME280;9635;52.078;8.648;2024-02-28T23:26:53;100697.81;;;3.86;82.39
19005;BME280;9635;52.078;8.648;2024-02-28T23:31:57;100690.28;;;3.77;82.25
19005;BME280;9635;52.078;8.648;2024-02-28T23:37:00;100687.50;;;3.61;82.87
19005;BME280;9635;52.078;8.648;2024-02-28T23:42:05;100676.94;;;3.60;82.77
19005;BME280;9635;52.078;8.648;2024-02-28T23:47:08;100673.78;;;3.52;83.09
19005;BME280;9635;52.078;8.648;2024-02-28T23:52:11;100677.75;;;3.43;82.84
19005;BME280;9635;52.078;8.648;2024-02-28T23:57:15;100668.47;;;3.33;83.44
